Time;durP1;ratioP1;P1;durP2;ratioP2;P2;SDS_P1;SDS_P2;PMS_P1;PMS_P2;Temp;Humidity;BMP_temperature;BMP_pressure;BME280_temperature;BME280_humidity;BME280_pressure;Samples;Min_cycle;Max_cycle;Signal;HPM_P1;HPM_P2
2021/08/07 00:00:41;;;;;;;1.90;0.50;;;;;20.78;99327.20;;;;94573;1201;93215;-52
2021/08/07 00:02:57;;;;;;;2.00;0.60;;;;;20.80;99325.60;;;;94609;1201;93365;-52
2021/08/07 00:05:01;;;;;;;1.50;0.60;;;;;20.92;99330.00;;;;94619;1201;92727;-55
2021/08/07 00:07:03;;;;;;;1.30;0.70;;;;;20.90;99331.60;;;;94639;1201;93440;-73
2021/08/07 00:09:04;;;;;;;2.70;0.70;;;;;20.80;99331.60;;;;94649;1193;92605;-70
2021/08/07 00:11:06;;;;;;;1.80;0.40;;;;;20.80;99340.60;;;;94582;1201;92310;-53
2021/08/07 00:13:07;;;;;;;2.40;0.70;;;;;20.80;99340.60;;;;94565;1201;92856;-52
2021/08/07 00:15:09;;;;;;;2.70;0.70;;;;;20.70;99343.20;;;;94595;1200;93257;-70
2021/08/07 00:17:10;;;;;;;2.00;0.80;;;;;20.70;99342.80;;;;94541;1201;93425;-71
2021/08/07 00:19:12;;;;;;;1.80;0.60;;;;;20.70;99345.80;;;;94374;1201;92308;-70
2021/08/07 00:21:13;;;;;;;1.90;0.60;;;;;20.66;99345.80;;;;94288;1201;92360;-52
2021/08/07 00:23:15;;;;;;;3.00;0.80;;;;;20.70;99347.00;;;;94608;1201;92832;-52
2021/08/07 00:25:16;;;;;;;1.10;0.50;;;;;20.70;99353.00;;;;94623;1201;93212;-70
2021/08/07 00:27:18;;;;;;;2.60;0.70;;;;;20.60;99352.60;;;;94558;1200;93824;-70
2021/08/07 00:29:19;;;;;;;1.70;0.70;;;;;20.58;99353.40;;;;94612;1201;93291;-70
2021/08/07 00:31:21;;;;;;;2.70;0.80;;;;;20.60;99352.40;;;;94560;1200;93488;-70
2021/08/07 00:33:22;;;;;;;1.70;0.70;;;;;20.70;99356.20;;;;94606;1192;92515;-70
2021/08/07 00:35:23;;;;;;;3.80;0.90;;;;;20.60;99359.00;;;;94593;1201;93313;-68
2021/08/07 00:37:25;;;;;;;1.10;0.60;;;;;20.60;99356.80;;;;94601;1201;93437;-69
2021/08/07 00:39:26;;;;;;;1.80;0.70;;;;;20.70;99359.80;;;;94629;1200;93220;-69
2021/08/07 00:41:28;;;;;;;2.40;0.60;;;;;20.60;99363.80;;;;94617;1193;92364;-68
2021/08/07 00:43:29;;;;;;;2.20;0.70;;;;;20.70;99368.60;;;;94592;1195;93796;-70
2021/08/07 00:45:31;;;;;;;2.50;0.80;;;;;20.70;99372.00;;;;94539;1201;93348;-68
2021/08/07 00:47:32;;;;;;;2.50;0.90;;;;;20.70;99371.60;;;;94630;1193;92504;-70
2021/08/07 00:49:34;;;;;;;1.60;0.70;;;;;20.60;99372.00;;;;94593;1201;93409;-68
2021/08/07 00:51:35;;;;;;;3.80;0.90;;;;;20.60;99372.00;;;;94618;1193;92447;-52
2021/08/07 00:53:37;;;;;;;2.70;0.70;;;;;20.64;99375.20;;;;94435;1201;93441;-52
2021/08/07 00:55:39;;;;;;;3.40;0.80;;;;;20.60;99378.60;;;;94450;1201;93285;-52
2021/08/07 00:57:41;;;;;;;4.70;1.00;;;;;20.60;99380.20;;;;94616;1200;93284;-52
2021/08/07 00:59:42;;;;;;;4.10;1.30;;;;;20.60;99383.40;;;;94575;1193;92356;-52
2021/08/07 01:01:44;;;;;;;3.00;0.90;;;;;20.50;99380.40;;;;94563;1200;92258;-52
2021/08/07 01:03:47;;;;;;;2.60;0.80;;;;;20.50;99386.20;;;;94599;1193;92328;-52
2021/08/07 01:05:52;;;;;;;2.90;1.00;;;;;20.50;99394.60;;;;94443;1201;92175;-68
2021/08/07 01:08:09;;;;;;;2.90;1.10;;;;;20.40;99395.40;;;;94595;1201;94015;-69
2021/08/07 01:10:17;;;;;;;3.60;1.10;;;;;20.44;99394.00;;;;94459;1201;93320;-52
2021/08/07 01:12:19;;;;;;;4.10;1.30;;;;;20.48;99397.20;;;;94559;1201;93281;-52
2021/08/07 01:14:23;;;;;;;2.00;0.90;;;;;20.50;99398.40;;;;94618;1201;92236;-51
2021/08/07 01:16:27;;;;;;;2.10;0.80;;;;;20.40;99398.20;;;;94611;1192;92510;-53
2021/08/07 01:18:28;;;;;;;2.60;0.90;;;;;20.50;99401.80;;;;94604;1201;93214;-51
2021/08/07 01:20:35;;;;;;;2.90;0.90;;;;;20.50;99403.00;;;;94577;1193;92298;-68
2021/08/07 01:23:02;;;;;;;1.90;0.90;;;;;20.50;99401.40;;;;94567;1192;92514;-68
2021/08/07 01:25:05;;;;;;;5.30;0.90;;;;;20.58;99399.40;;;;94586;1200;93192;-53
2021/08/07 01:27:28;;;;;;;2.00;0.70;;;;;20.60;99397.60;;;;94398;1201;92526;-53
2021/08/07 01:29:29;;;;;;;2.70;1.00;;;;;20.60;99398.00;;;;94377;1195;92573;-52
2021/08/07 01:31:30;;;;;;;4.90;1.40;;;;;20.54;99397.20;;;;94404;1201;93246;-67
2021/08/07 01:33:32;;;;;;;5.70;1.10;;;;;20.50;99400.20;;;;94146;1194;92546;-67
2021/08/07 01:35:33;;;;;;;2.30;0.80;;;;;20.52;99401.40;;;;94597;1200;93458;-67
2021/08/07 01:37:35;;;;;;;5.30;1.30;;;;;20.50;99405.60;;;;94123;1201;93224;-68
2021/08/07 01:39:42;;;;;;;2.30;1.10;;;;;20.50;99409.60;;;;94629;1200;93284;-68
2021/08/07 01:41:43;;;;;;;3.20;1.00;;;;;20.60;99404.80;;;;94564;1201;93686;-67
2021/08/07 01:43:45;;;;;;;2.30;0.90;;;;;20.54;99398.60;;;;94594;1201;93118;-68
2021/08/07 01:45:47;;;;;;;2.40;1.00;;;;;20.52;99405.20;;;;94594;1200;93280;-53
2021/08/07 01:48:03;;;;;;;3.00;1.20;;;;;20.50;99408.20;;;;94609;1192;92323;-54
2021/08/07 01:50:22;;;;;;;2.70;0.90;;;;;20.40;99408.20;;;;94585;1201;92784;-53
2021/08/07 01:52:27;;;;;;;3.40;0.80;;;;;20.48;99412.20;;;;94589;1196;92395;-52
2021/08/07 01:54:33;;;;;;;4.40;1.10;;;;;20.50;99408.40;;;;94633;1200;93417;-52
2021/08/07 01:56:37;;;;;;;2.10;0.80;;;;;20.60;99408.00;;;;94549;1192;92379;-67
2021/08/07 01:58:40;;;;;;;4.50;1.20;;;;;20.60;99407.20;;;;94629;1200;93162;-67
2021/08/07 02:00:42;;;;;;;2.90;1.10;;;;;20.50;99411.40;;;;94657;1201;93253;-52
2021/08/07 02:02:43;;;;;;;4.30;1.00;;;;;20.50;99409.20;;;;94469;1201;93691;-52
2021/08/07 02:04:45;;;;;;;3.50;0.90;;;;;20.56;99406.00;;;;94660;1201;92592;-53
2021/08/07 02:06:47;;;;;;;4.10;0.90;;;;;20.50;99411.20;;;;94562;1201;93793;-52
2021/08/07 02:08:49;;;;;;;2.50;1.10;;;;;20.52;99414.00;;;;94607;1201;93266;-52
2021/08/07 02:10:50;;;;;;;4.20;1.10;;;;;20.60;99409.80;;;;94417;1201;93235;-66
2021/08/07 02:12:52;;;;;;;3.90;0.90;;;;;20.60;99414.20;;;;94459;1201;92853;-69
2021/08/07 02:14:53;;;;;;;3.10;1.00;;;;;20.50;99416.00;;;;94611;1201;93683;-67
2021/08/07 02:16:55;;;;;;;5.20;1.10;;;;;20.60;99417.40;;;;94406;1193;92517;-51
2021/08/07 02:18:56;;;;;;;2.70;1.00;;;;;20.58;99419.00;;;;94629;1194;92752;-51
2021/08/07 02:20:58;;;;;;;2.60;0.90;;;;;20.66;99422.60;;;;94389;1201;92521;-67
2021/08/07 02:22:59;;;;;;;3.80;1.40;;;;;20.60;99425.00;;;;94424;1201;93440;-70
2021/08/07 02:25:04;;;;;;;2.50;1.00;;;;;20.60;99425.60;;;;94610;1201;92238;-61
2021/08/07 02:27:05;;;;;;;3.30;1.10;;;;;20.60;99427.60;;;;94551;1201;93468;-68
2021/08/07 02:29:07;;;;;;;2.20;0.80;;;;;20.52;99432.80;;;;94429;1201;93454;-67
2021/08/07 02:31:08;;;;;;;2.00;0.90;;;;;20.60;99436.00;;;;94200;1201;92772;-51
2021/08/07 02:33:10;;;;;;;3.90;1.10;;;;;20.62;99436.80;;;;94438;1201;93403;-51
2021/08/07 02:35:12;;;;;;;7.90;1.00;;;;;20.60;99439.00;;;;94464;1201;93124;-53
2021/08/07 02:37:13;;;;;;;2.70;1.00;;;;;20.60;99444.00;;;;94659;1201;93294;-52
2021/08/07 02:39:15;;;;;;;4.30;1.30;;;;;20.60;99440.40;;;;94644;1201;93193;-51
2021/08/07 02:41:16;;;;;;;4.60;1.00;;;;;20.60;99445.80;;;;94373;1200;93270;-52
2021/08/07 02:43:18;;;;;;;4.20;1.00;;;;;20.62;99451.60;;;;94179;1201;93224;-52
2021/08/07 02:45:19;;;;;;;4.40;1.40;;;;;20.80;99457.60;;;;94404;1201;92477;-69
2021/08/07 02:47:21;;;;;;;3.70;1.10;;;;;20.70;99452.40;;;;94440;1201;93319;-67
2021/08/07 02:49:23;;;;;;;4.70;1.30;;;;;20.70;99456.40;;;;94635;1200;93288;-69
2021/08/07 02:51:25;;;;;;;4.50;1.10;;;;;20.60;99455.40;;;;94445;1201;92608;-67
2021/08/07 02:53:26;;;;;;;4.50;1.00;;;;;20.70;99457.20;;;;94625;1192;92742;-67
2021/08/07 02:55:28;;;;;;;3.10;1.00;;;;;20.70;99461.20;;;;94150;1201;93209;-53
2021/08/07 02:57:30;;;;;;;3.10;1.00;;;;;20.70;99459.80;;;;94608;1194;92644;-51
2021/08/07 02:59:32;;;;;;;4.90;1.30;;;;;20.70;99464.60;;;;94669;1201;93258;-52
2021/08/07 03:01:34;;;;;;;2.50;0.90;;;;;20.70;99466.80;;;;94560;1201;93442;-52
2021/08/07 03:03:35;;;;;;;2.60;1.00;;;;;20.70;99468.80;;;;94639;1201;92862;-52
2021/08/07 03:05:37;;;;;;;3.00;0.90;;;;;20.80;99471.80;;;;94598;1201;93515;-67
2021/08/07 03:07:38;;;;;;;3.30;0.90;;;;;20.80;99476.80;;;;94601;1200;93441;-69
2021/08/07 03:09:40;;;;;;;4.30;1.00;;;;;20.80;99474.80;;;;94650;1201;93249;-68
2021/08/07 03:11:41;;;;;;;5.10;1.10;;;;;20.90;99475.40;;;;94621;1201;93303;-68
2021/08/07 03:13:43;;;;;;;3.70;1.20;;;;;20.90;99472.60;;;;94628;1201;93271;-67
2021/08/07 03:15:44;;;;;;;6.60;1.30;;;;;20.90;99474.40;;;;94356;1200;93222;-52
2021/08/07 03:17:45;;;;;;;3.00;1.00;;;;;20.90;99478.60;;;;94579;1193;92281;-52
2021/08/07 03:19:47;;;;;;;1.80;0.80;;;;;20.80;99479.60;;;;94647;1194;92501;-53
2021/08/07 03:21:48;;;;;;;5.20;1.00;;;;;20.80;99475.40;;;;94602;1201;93311;-66
2021/08/07 03:23:50;;;;;;;3.60;1.40;;;;;20.80;99474.00;;;;94639;1201;93241;-68
2021/08/07 03:25:51;;;;;;;4.40;1.50;;;;;20.66;99470.00;;;;94607;1194;92386;-54
2021/08/07 03:27:53;;;;;;;5.30;1.20;;;;;20.70;99473.40;;;;94605;1200;93464;-50
2021/08/07 03:29:54;;;;;;;5.10;1.30;;;;;20.70;99476.00;;;;94425;1201;93405;-52
2021/08/07 03:31:56;;;;;;;3.70;1.30;;;;;20.60;99475.00;;;;94601;1201;93360;-52
2021/08/07 03:33:57;;;;;;;1.80;0.80;;;;;20.68;99476.80;;;;94621;1201;93137;-53
2021/08/07 03:35:58;;;;;;;5.20;1.30;;;;;20.70;99479.60;;;;94614;1201;92538;-51
2021/08/07 03:38:00;;;;;;;4.50;1.00;;;;;20.70;99479.80;;;;94614;1201;93281;-52
2021/08/07 03:40:02;;;;;;;4.20;1.20;;;;;20.60;99479.80;;;;94607;1201;93250;-67
2021/08/07 03:42:03;;;;;;;5.30;1.20;;;;;20.70;99482.00;;;;94588;1201;92375;-67
2021/08/07 03:44:04;;;;;;;3.20;1.00;;;;;20.80;99487.20;;;;94603;1193;92422;-70
2021/08/07 03:46:06;;;;;;;4.00;1.00;;;;;20.64;99487.80;;;;94551;1200;93409;-53
2021/08/07 03:48:08;;;;;;;3.30;1.00;;;;;20.60;99487.80;;;;94633;1192;92595;-53
2021/08/07 03:50:10;;;;;;;3.60;1.20;;;;;20.50;99490.40;;;;94598;1201;92474;-51
2021/08/07 03:52:11;;;;;;;4.10;1.20;;;;;20.60;99498.00;;;;94601;1201;93455;-51
2021/08/07 03:54:13;;;;;;;8.40;1.40;;;;;20.50;99504.60;;;;94592;1194;92161;-54
2021/08/07 03:56:14;;;;;;;5.40;1.30;;;;;20.50;99500.80;;;;94591;1201;93367;-69
2021/08/07 03:58:16;;;;;;;2.90;1.10;;;;;20.56;99502.80;;;;94690;1201;92310;-69
2021/08/07 04:00:18;;;;;;;5.10;1.40;;;;;20.50;99502.40;;;;94629;1200;93377;-70
2021/08/07 04:02:19;;;;;;;5.00;1.60;;;;;20.60;99502.00;;;;94616;1201;93196;-68
2021/08/07 04:04:21;;;;;;;4.90;1.30;;;;;20.60;99498.20;;;;94621;1194;92297;-68
2021/08/07 04:06:22;;;;;;;6.40;1.30;;;;;20.52;99501.40;;;;94562;1201;92390;-52
2021/08/07 04:08:24;;;;;;;6.30;1.60;;;;;20.60;99498.80;;;;94621;1194;92389;-53
2021/08/07 04:10:25;;;;;;;2.70;1.20;;;;;20.60;99507.20;;;;94650;1201;93242;-53
2021/08/07 04:12:26;;;;;;;6.10;1.30;;;;;20.70;99505.80;;;;94699;1201;92526;-55
2021/08/07 04:14:28;;;;;;;2.80;1.00;;;;;20.58;99512.80;;;;94662;1201;93314;-51
2021/08/07 04:16:29;;;;;;;9.40;2.00;;;;;20.56;99512.20;;;;94556;1201;92808;-51
2021/08/07 04:18:31;;;;;;;4.70;1.20;;;;;20.60;99512.00;;;;94092;1196;92379;-52
2021/08/07 04:20:32;;;;;;;4.30;1.40;;;;;20.64;99512.20;;;;94641;1201;93391;-69
2021/08/07 04:22:34;;;;;;;6.20;1.30;;;;;20.70;99514.20;;;;94668;1201;93283;-71
2021/08/07 04:24:35;;;;;;;4.00;1.20;;;;;20.70;99512.00;;;;94693;1201;93231;-67
2021/08/07 04:26:37;;;;;;;3.70;1.10;;;;;20.76;99515.00;;;;94574;1193;92608;-70
2021/08/07 04:28:38;;;;;;;7.10;1.40;;;;;20.70;99516.00;;;;94690;1201;93277;-69
2021/08/07 04:30:40;;;;;;;5.90;1.80;;;;;20.70;99518.20;;;;94602;1201;92327;-54
2021/08/07 04:32:41;;;;;;;4.60;1.70;;;;;20.60;99519.20;;;;94606;1201;93650;-53
2021/08/07 04:34:43;;;;;;;4.20;1.10;;;;;20.64;99513.20;;;;94651;1201;92272;-52
2021/08/07 04:36:45;;;;;;;6.00;1.70;;;;;20.50;99519.80;;;;94650;1192;92502;-68
2021/08/07 04:38:46;;;;;;;3.50;1.20;;;;;20.50;99517.80;;;;94696;1201;92258;-67
2021/08/07 04:40:48;;;;;;;6.90;1.70;;;;;20.50;99517.60;;;;94619;1201;93519;-52
2021/08/07 04:42:50;;;;;;;6.20;1.70;;;;;20.60;99517.80;;;;94652;1201;92359;-54
2021/08/07 04:44:51;;;;;;;4.40;1.20;;;;;20.60;99523.00;;;;94663;1201;93255;-51
2021/08/07 04:46:53;;;;;;;5.60;1.30;;;;;20.60;99524.60;;;;94657;1201;92164;-52
2021/08/07 04:48:54;;;;;;;5.10;1.10;;;;;20.70;99527.80;;;;94666;1201;93823;-51
2021/08/07 04:50:55;;;;;;;4.90;1.50;;;;;20.76;99534.40;;;;94646;1201;92317;-67
2021/08/07 04:52:57;;;;;;;5.00;1.40;;;;;20.70;99536.20;;;;94680;1194;92324;-68
2021/08/07 04:54:59;;;;;;;4.20;1.40;;;;;20.50;99538.60;;;;94662;1201;93536;-68
2021/08/07 04:57:03;;;;;;;3.80;1.20;;;;;20.50;99540.60;;;;94580;1201;92814;-67
2021/08/07 04:59:05;;;;;;;5.60;1.50;;;;;20.44;99543.60;;;;94628;1200;93476;-67
2021/08/07 05:01:06;;;;;;;4.00;1.20;;;;;20.48;99539.80;;;;94681;1194;92516;-66
2021/08/07 05:03:08;;;;;;;4.60;1.10;;;;;20.50;99540.20;;;;94630;1201;93153;-66
2021/08/07 05:05:09;;;;;;;2.60;1.10;;;;;20.56;99538.80;;;;94600;1201;93217;-51
2021/08/07 05:07:11;;;;;;;3.70;1.20;;;;;20.50;99539.80;;;;94602;1201;92284;-51
2021/08/07 05:09:12;;;;;;;6.10;1.00;;;;;20.60;99538.20;;;;94627;1200;93829;-52
2021/08/07 05:11:14;;;;;;;5.70;1.50;;;;;20.50;99533.20;;;;94632;1201;93286;-52
2021/08/07 05:13:15;;;;;;;4.90;1.50;;;;;20.60;99536.00;;;;94607;1200;93276;-53
2021/08/07 05:15:17;;;;;;;3.40;1.20;;;;;20.60;99530.40;;;;94534;1201;93808;-53
2021/08/07 05:17:18;;;;;;;3.80;1.10;;;;;20.60;99533.40;;;;94573;1201;93254;-52
2021/08/07 05:19:20;;;;;;;5.50;1.50;;;;;20.70;99533.80;;;;94627;1201;93256;-52
2021/08/07 05:21:21;;;;;;;4.50;1.00;;;;;20.60;99537.60;;;;94598;1192;92323;-53
2021/08/07 05:23:22;;;;;;;5.00;1.80;;;;;20.60;99531.80;;;;94554;1201;93205;-51
2021/08/07 05:25:24;;;;;;;3.30;1.20;;;;;20.54;99537.60;;;;94638;1196;92251;-65
2021/08/07 05:27:26;;;;;;;3.40;1.20;;;;;20.70;99538.80;;;;94553;1201;93356;-66
2021/08/07 05:29:27;;;;;;;7.70;1.60;;;;;20.50;99540.40;;;;94649;1201;93018;-67
2021/08/07 05:31:28;;;;;;;5.40;1.70;;;;;20.70;99543.00;;;;94576;1201;93125;-53
2021/08/07 05:33:30;;;;;;;5.10;1.30;;;;;20.40;99544.20;;;;94671;1201;92262;-53
2021/08/07 05:35:31;;;;;;;4.50;1.40;;;;;20.52;99544.40;;;;94612;1193;92363;-52
2021/08/07 05:37:37;;;;;;;2.80;1.10;;;;;20.50;99548.40;;;;94510;1201;93763;-52
2021/08/07 05:39:39;;;;;;;6.30;1.30;;;;;20.50;99548.00;;;;94514;1193;92497;-52
2021/08/07 05:41:40;;;;;;;5.40;1.10;;;;;20.60;99539.20;;;;94607;1201;93469;-52
2021/08/07 05:43:42;;;;;;;6.70;1.10;;;;;20.62;99549.20;;;;94660;1200;92540;-52
2021/08/07 05:45:43;;;;;;;5.00;1.40;;;;;20.74;99546.00;;;;94606;1192;92373;-53
2021/08/07 05:47:45;;;;;;;4.70;1.20;;;;;20.76;99549.80;;;;94630;1201;92596;-53
2021/08/07 05:49:46;;;;;;;4.90;1.60;;;;;20.70;99552.80;;;;94647;1201;93369;-53
2021/08/07 05:51:48;;;;;;;6.10;1.80;;;;;20.70;99550.00;;;;94619;1201;93216;-66
2021/08/07 05:53:49;;;;;;;5.00;1.30;;;;;20.70;99549.20;;;;94650;1200;93813;-68
2021/08/07 05:55:54;;;;;;;4.20;1.10;;;;;20.70;99550.80;;;;94570;1201;93263;-52
2021/08/07 05:57:58;;;;;;;4.50;1.20;;;;;20.70;99544.60;;;;94651;1201;92198;-54
2021/08/07 06:00:00;;;;;;;4.50;1.30;;;;;20.82;99550.60;;;;94606;1201;92262;-53
2021/08/07 06:02:02;;;;;;;4.30;1.50;;;;;20.82;99548.60;;;;94619;1192;92416;-56
2021/08/07 06:04:04;;;;;;;2.40;0.90;;;;;20.70;99549.60;;;;94572;1201;92488;-53
2021/08/07 06:06:05;;;;;;;4.30;1.20;;;;;20.80;99551.80;;;;94565;1201;92508;-52
2021/08/07 06:08:07;;;;;;;5.10;1.30;;;;;20.90;99555.40;;;;94647;1200;93475;-55
2021/08/07 06:10:08;;;;;;;4.40;1.40;;;;;20.74;99558.20;;;;94636;1201;93452;-52
2021/08/07 06:12:10;;;;;;;3.00;1.00;;;;;20.70;99559.00;;;;94684;1201;93781;-54
2021/08/07 06:14:11;;;;;;;4.50;1.20;;;;;20.64;99558.80;;;;94596;1195;92277;-52
2021/08/07 06:16:13;;;;;;;6.10;1.20;;;;;20.80;99561.20;;;;94564;1193;92524;-66
2021/08/07 06:18:15;;;;;;;5.10;1.40;;;;;21.00;99557.60;;;;94641;1195;92273;-71
2021/08/07 06:20:16;;;;;;;5.00;1.40;;;;;20.90;99564.60;;;;94669;1201;93412;-53
2021/08/07 06:22:18;;;;;;;5.00;1.20;;;;;20.88;99567.80;;;;94640;1201;92374;-53
2021/08/07 06:24:19;;;;;;;5.20;1.20;;;;;20.82;99573.80;;;;94648;1193;92343;-53
2021/08/07 06:26:21;;;;;;;5.10;1.00;;;;;20.90;99567.20;;;;94691;1201;92339;-67
2021/08/07 06:28:23;;;;;;;4.40;1.20;;;;;20.88;99581.00;;;;94402;1201;93481;-68
2021/08/07 06:30:25;;;;;;;5.00;1.10;;;;;20.80;99581.40;;;;94398;1201;92498;-53
2021/08/07 06:32:27;;;;;;;4.50;1.10;;;;;20.88;99583.40;;;;94616;1192;93059;-52
2021/08/07 06:34:28;;;;;;;8.30;1.20;;;;;20.92;99582.80;;;;94608;1200;93270;-54
2021/08/07 06:36:32;;;;;;;4.00;1.20;;;;;20.96;99579.00;;;;94587;1199;92312;-51
2021/08/07 06:38:34;;;;;;;4.40;1.30;;;;;20.90;99582.20;;;;94635;1201;93216;-54
2021/08/07 06:40:35;;;;;;;2.50;1.00;;;;;20.80;99591.20;;;;94607;1201;92267;-65
2021/08/07 06:42:37;;;;;;;5.70;1.30;;;;;20.72;99591.80;;;;94649;1194;92391;-67
2021/08/07 06:44:38;;;;;;;3.70;1.10;;;;;20.74;99592.60;;;;94659;1201;93213;-64
2021/08/07 06:46:40;;;;;;;2.80;1.00;;;;;20.90;99592.60;;;;94537;1194;92095;-51
2021/08/07 06:48:41;;;;;;;3.20;0.90;;;;;21.00;99585.00;;;;94627;1194;92242;-51
2021/08/07 06:50:43;;;;;;;5.60;1.40;;;;;20.90;99596.00;;;;94627;1201;94266;-65
2021/08/07 06:52:44;;;;;;;4.70;1.00;;;;;21.00;99589.20;;;;94636;1193;92501;-66
2021/08/07 06:54:46;;;;;;;2.70;1.00;;;;;21.10;99587.00;;;;94643;1200;93468;-65
2021/08/07 06:56:48;;;;;;;4.40;1.00;;;;;21.20;99590.40;;;;94568;1200;93411;-66
2021/08/07 06:58:49;;;;;;;4.50;1.20;;;;;21.00;99589.20;;;;94608;1201;92124;-65
2021/08/07 07:00:51;;;;;;;3.60;1.10;;;;;21.08;99583.80;;;;94586;1202;93434;-51
2021/08/07 07:02:52;;;;;;;4.10;1.10;;;;;21.10;99584.40;;;;94577;1201;93423;-52
2021/08/07 07:04:54;;;;;;;5.90;1.30;;;;;20.98;99583.60;;;;94647;1201;93923;-51
2021/08/07 07:06:57;;;;;;;4.90;1.10;;;;;20.90;99585.20;;;;94562;1201;93211;-65
2021/08/07 07:08:58;;;;;;;3.90;1.20;;;;;20.90;99588.60;;;;94581;1201;93191;-66
2021/08/07 07:11:00;;;;;;;4.40;1.10;;;;;21.00;99587.40;;;;94523;1193;92305;-52
2021/08/07 07:13:01;;;;;;;4.20;1.20;;;;;21.00;99587.80;;;;94515;1201;93127;-51
2021/08/07 07:15:04;;;;;;;4.50;1.10;;;;;21.00;99588.80;;;;94622;1201;93360;-63
2021/08/07 07:17:05;;;;;;;3.70;1.10;;;;;21.08;99588.40;;;;94605;1201;92778;-65
2021/08/07 07:19:07;;;;;;;3.40;1.00;;;;;21.00;99593.00;;;;94584;1193;92550;-67
2021/08/07 07:21:09;;;;;;;6.80;1.00;;;;;21.00;99591.60;;;;94564;1195;92270;-66
2021/08/07 07:23:12;;;;;;;3.70;1.00;;;;;21.10;99594.60;;;;94561;1201;92557;-66
2021/08/07 07:25:14;;;;;;;4.40;1.20;;;;;21.00;99590.40;;;;94535;1201;92362;-52
2021/08/07 07:27:15;;;;;;;3.20;1.00;;;;;21.00;99586.80;;;;94561;1194;92776;-53
2021/08/07 07:29:17;;;;;;;5.40;0.90;;;;;21.00;99586.80;;;;94607;1201;93406;-53
2021/08/07 07:31:18;;;;;;;3.00;1.10;;;;;21.14;99592.40;;;;94607;1193;92497;-53
2021/08/07 07:33:19;;;;;;;4.30;1.20;;;;;21.20;99594.80;;;;94594;1201;93467;-53
2021/08/07 07:35:21;;;;;;;6.80;1.50;;;;;21.20;99597.20;;;;94606;1201;93583;-67
2021/08/07 07:37:23;;;;;;;3.60;0.80;;;;;21.30;99598.60;;;;94571;1201;92320;-66
2021/08/07 07:39:24;;;;;;;5.10;1.30;;;;;21.40;99596.00;;;;94198;1194;92802;-66
2021/08/07 07:41:26;;;;;;;3.80;1.00;;;;;21.40;99598.40;;;;94528;1193;92342;-66
2021/08/07 07:43:27;;;;;;;3.40;1.00;;;;;21.50;99604.00;;;;94365;1201;92262;-66
2021/08/07 07:45:29;;;;;;;3.80;1.20;;;;;21.40;99601.60;;;;94593;1201;93141;-67
2021/08/07 07:47:30;;;;;;;6.80;1.00;;;;;21.40;99603.40;;;;94508;1195;92286;-68
2021/08/07 07:49:32;;;;;;;2.50;0.90;;;;;21.30;99604.80;;;;94634;1201;93406;-67
2021/08/07 07:51:33;;;;;;;3.40;1.00;;;;;21.30;99606.60;;;;94582;1194;92331;-52
2021/08/07 07:53:35;;;;;;;3.20;1.00;;;;;21.30;99605.80;;;;94619;1201;93252;-52
2021/08/07 07:55:36;;;;;;;4.60;1.20;;;;;21.40;99606.40;;;;94576;1201;92330;-67
2021/08/07 07:57:38;;;;;;;3.80;1.00;;;;;21.40;99610.80;;;;94518;1200;93250;-67
2021/08/07 07:59:39;;;;;;;3.40;1.10;;;;;21.40;99608.80;;;;94574;1194;92504;-67
2021/08/07 08:01:41;;;;;;;2.70;0.50;;;;;21.40;99612.20;;;;94523;1201;92290;-51
2021/08/07 08:03:42;;;;;;;4.40;0.90;;;;;21.48;99615.60;;;;94638;1201;92536;-53
2021/08/07 08:05:43;;;;;;;5.00;1.00;;;;;21.60;99628.00;;;;94635;1201;93700;-53
2021/08/07 08:07:45;;;;;;;3.80;1.00;;;;;21.50;99624.40;;;;94646;1201;93477;-51
2021/08/07 08:09:46;;;;;;;6.60;1.10;;;;;21.50;99621.20;;;;94648;1201;93055;-51
2021/08/07 08:11:48;;;;;;;4.10;0.90;;;;;21.50;99627.00;;;;94534;1201;93772;-52
2021/08/07 08:13:49;;;;;;;5.30;0.90;;;;;21.50;99628.60;;;;94631;1196;92340;-54
2021/08/07 08:15:51;;;;;;;4.80;0.80;;;;;21.50;99628.00;;;;94524;1193;92774;-67
2021/08/07 08:17:53;;;;;;;4.20;1.10;;;;;21.50;99635.20;;;;94532;1201;92732;-68
2021/08/07 08:19:54;;;;;;;6.40;1.10;;;;;21.50;99635.80;;;;94493;1201;92531;-66
2021/08/07 08:21:55;;;;;;;3.30;0.90;;;;;21.58;99632.40;;;;94520;1192;93739;-53
2021/08/07 08:23:57;;;;;;;3.60;1.10;;;;;21.60;99637.60;;;;94582;1196;92286;-57
2021/08/07 08:25:58;;;;;;;4.30;1.20;;;;;21.60;99637.60;;;;94607;1201;92474;-67
2021/08/07 08:28:00;;;;;;;4.00;1.00;;;;;21.70;99635.20;;;;94322;1195;93215;-71
2021/08/07 08:30:03;;;;;;;2.80;0.90;;;;;21.70;99630.40;;;;94651;1201;93328;-53
2021/08/07 08:32:05;;;;;;;3.60;1.00;;;;;21.72;99631.60;;;;94725;1201;93260;-53
2021/08/07 08:34:06;;;;;;;5.10;1.10;;;;;21.80;99635.00;;;;94693;1192;92499;-53
2021/08/07 08:36:08;;;;;;;4.10;1.10;;;;;21.80;99635.00;;;;94590;1201;94132;-67
2021/08/07 08:38:09;;;;;;;3.00;1.00;;;;;21.80;99637.00;;;;94582;1201;92333;-68
2021/08/07 08:40:11;;;;;;;4.40;1.00;;;;;21.80;99640.80;;;;94659;1200;93247;-67
2021/08/07 08:42:13;;;;;;;5.00;1.10;;;;;21.90;99639.20;;;;94577;1193;92491;-66
2021/08/07 08:44:14;;;;;;;2.80;1.20;;;;;21.90;99640.80;;;;94599;1201;94253;-67
2021/08/07 08:46:16;;;;;;;4.30;1.00;;;;;21.90;99642.80;;;;94589;1202;93130;-67
2021/08/07 08:48:17;;;;;;;6.20;1.20;;;;;22.00;99643.40;;;;94609;1194;92344;-68
2021/08/07 08:50:22;;;;;;;5.90;1.40;;;;;22.00;99647.60;;;;94627;1202;92328;-53
2021/08/07 08:52:25;;;;;;;4.50;1.00;;;;;22.08;99655.40;;;;94629;1192;92499;-53
2021/08/07 08:54:27;;;;;;;4.60;1.20;;;;;22.10;99655.00;;;;94575;1193;93310;-52
2021/08/07 08:56:34;;;;;;;3.50;1.30;;;;;22.10;99656.20;;;;94515;1200;93097;-52
2021/08/07 08:58:36;;;;;;;3.00;1.20;;;;;22.10;99658.80;;;;94523;1201;92496;-52
2021/08/07 09:00:37;;;;;;;4.50;1.30;;;;;22.12;99656.80;;;;94614;1193;92532;-52
2021/08/07 09:02:39;;;;;;;3.80;1.20;;;;;22.20;99663.60;;;;94412;1201;92249;-65
2021/08/07 09:04:41;;;;;;;3.50;1.30;;;;;22.20;99666.20;;;;94654;1201;92640;-66
2021/08/07 09:06:42;;;;;;;3.70;1.40;;;;;22.20;99669.60;;;;94620;1201;93187;-51
2021/08/07 09:09:00;;;;;;;4.80;1.30;;;;;22.22;99670.00;;;;94607;1194;92128;-51
2021/08/07 09:11:13;;;;;;;3.80;1.20;;;;;22.30;99669.40;;;;94569;1194;92488;-51
2021/08/07 09:13:19;;;;;;;5.40;1.50;;;;;22.30;99669.40;;;;94541;1201;92332;-51
2021/08/07 09:15:31;;;;;;;5.40;1.50;;;;;22.30;99672.00;;;;94530;1201;92821;-52
2021/08/07 09:17:32;;;;;;;3.90;1.40;;;;;22.40;99671.00;;;;94510;1193;92338;-66
2021/08/07 09:19:40;;;;;;;4.20;1.30;;;;;22.40;99673.80;;;;94500;1201;93418;-68
2021/08/07 09:21:41;;;;;;;4.90;1.50;;;;;22.40;99671.40;;;;94614;1193;92502;-51
2021/08/07 09:23:43;;;;;;;5.70;1.50;;;;;22.40;99673.20;;;;94556;1200;93415;-52
2021/08/07 09:25:47;;;;;;;4.90;1.50;;;;;22.50;99672.20;;;;94566;1201;93223;-67
2021/08/07 09:27:50;;;;;;;3.70;1.40;;;;;22.50;99668.60;;;;94527;1201;93427;-67
2021/08/07 09:29:52;;;;;;;5.30;1.40;;;;;22.50;99672.40;;;;94611;1201;93470;-67
2021/08/07 09:31:57;;;;;;;4.50;1.50;;;;;22.52;99665.80;;;;94594;1201;92256;-53
2021/08/07 09:34:16;;;;;;;4.80;1.60;;;;;22.60;99668.40;;;;94598;1201;93251;-53
2021/08/07 09:36:18;;;;;;;4.60;1.40;;;;;22.60;99670.80;;;;94520;1201;93435;-51
2021/08/07 09:38:23;;;;;;;6.40;1.50;;;;;22.60;99670.60;;;;94107;1202;93500;-52
2021/08/07 09:40:26;;;;;;;5.70;1.40;;;;;22.70;99674.20;;;;94364;1202;92529;-52
2021/08/07 09:42:28;;;;;;;6.60;1.50;;;;;22.70;99677.00;;;;94142;1201;93348;-53
2021/08/07 09:44:30;;;;;;;3.90;1.30;;;;;22.70;99681.40;;;;94640;1202;93221;-51
2021/08/07 09:46:32;;;;;;;6.90;1.50;;;;;22.78;99679.80;;;;94540;1201;93567;-52
2021/08/07 09:48:43;;;;;;;5.50;1.50;;;;;22.80;99686.20;;;;94499;1201;93511;-52
2021/08/07 09:50:45;;;;;;;4.00;1.50;;;;;22.82;99688.20;;;;94510;1201;93423;-67
2021/08/07 09:52:46;;;;;;;4.30;1.60;;;;;22.90;99688.00;;;;94379;1201;93786;-68
2021/08/07 09:54:48;;;;;;;6.80;1.60;;;;;22.90;99691.00;;;;94363;1201;94219;-68
2021/08/07 09:56:52;;;;;;;9.80;2.50;;;;;22.90;99690.20;;;;94643;1200;93360;-68
2021/08/07 09:59:10;;;;;;;8.40;2.80;;;;;22.90;99695.00;;;;94411;1193;92523;-68
2021/08/07 10:01:26;;;;;;;8.20;2.30;;;;;22.90;99698.00;;;;94572;1201;93958;-66
2021/08/07 10:03:31;;;;;;;13.00;2.80;;;;;22.90;99703.80;;;;94548;1201;92140;-67
2021/08/07 10:05:32;;;;;;;7.90;2.40;;;;;22.90;99699.20;;;;94576;1193;92641;-65
2021/08/07 10:07:34;;;;;;;7.40;2.10;;;;;22.90;99698.60;;;;94569;1201;92343;-67
2021/08/07 10:09:36;;;;;;;7.70;2.10;;;;;22.98;99696.40;;;;94309;1193;92607;-66
2021/08/07 10:11:38;;;;;;;8.80;2.30;;;;;23.00;99695.80;;;;94584;1196;92552;-67
2021/08/07 10:13:40;;;;;;;7.20;2.30;;;;;23.00;99694.00;;;;94614;1201;91939;-68